sensor_id;sensor_type;location;lat;lon;timestamp;P1;durP1;ratioP1;P2;durP2;ratioP2
18720;SDS011;9489;50.948;3.114;2023-04-10T00:01:03;15.70;;;14.30;;
18720;SDS011;9489;50.948;3.114;2023-04-10T00:03:29;16.23;;;14.77;;
18720;SDS011;9489;50.948;3.114;2023-04-10T00:05:55;15.18;;;13.77;;
18720;SDS011;9489;50.948;3.114;2023-04-10T00:08:24;15.40;;;13.85;;
18720;SDS011;9489;50.948;3.114;2023-04-10T00:10:50;13.25;;;12.05;;
18720;SDS011;9489;50.948;3.114;2023-04-10T00:13:17;13.15;;;12.05;;
18720;SDS011;9489;50.948;3.114;2023-04-10T00:15:42;13.90;;;12.50;;
18720;SDS011;9489;50.948;3.114;2023-04-10T00:18:08;12.77;;;11.52;;
18720;SDS011;9489;50.948;3.114;2023-04-10T00:20:33;12.70;;;11.60;;
18720;SDS011;9489;50.948;3.114;2023-04-10T00:22:59;13.30;;;12.10;;
18720;SDS011;9489;50.948;3.114;2023-04-10T00:25:25;13.23;;;11.88;;
18720;SDS011;9489;50.948;3.114;2023-04-10T00:27:51;12.80;;;11.60;;
18720;SDS011;9489;50.948;3.114;2023-04-10T00:30:17;13.88;;;12.68;;
18720;SDS011;9489;50.948;3.114;2023-04-10T00:32:43;12.85;;;11.75;;
18720;SDS011;9489;50.948;3.114;2023-04-10T00:35:09;12.95;;;11.85;;
18720;SDS011;9489;50.948;3.114;2023-04-10T00:37:34;12.45;;;11.23;;
18720;SDS011;9489;50.948;3.114;2023-04-10T00:40:00;12.50;;;11.32;;
18720;SDS011;9489;50.948;3.114;2023-04-10T00:42:26;12.30;;;11.27;;
18720;SDS011;9489;50.948;3.114;2023-04-10T00:44:51;12.27;;;11.23;;
18720;SDS011;9489;50.948;3.114;2023-04-10T00:47:17;13.25;;;12.07;;
18720;SDS011;9489;50.948;3.114;2023-04-10T00:49:43;12.48;;;11.38;;
18720;SDS011;9489;50.948;3.114;2023-04-10T00:52:09;12.80;;;11.70;;
18720;SDS011;9489;50.948;3.114;2023-04-10T00:54:35;12.00;;;11.00;;
18720;SDS011;9489;50.948;3.114;2023-04-10T00:57:01;12.13;;;11.13;;
18720;SDS011;9489;50.948;3.114;2023-04-10T00:59:28;12.13;;;11.10;;
18720;SDS011;9489;50.948;3.114;2023-04-10T01:01:54;12.23;;;11.13;;
18720;SDS011;9489;50.948;3.114;2023-04-10T01:04:20;11.07;;;10.15;;
18720;SDS011;9489;50.948;3.114;2023-04-10T01:10:04;11.07;;;10.10;;
18720;SDS011;9489;50.948;3.114;2023-04-10T01:15:34;10.40;;;9.52;;
18720;SDS011;9489;50.948;3.114;2023-04-10T01:18:18;10.73;;;9.77;;
18720;SDS011;9489;50.948;3.114;2023-04-10T01:20:48;10.40;;;9.40;;
18720;SDS011;9489;50.948;3.114;2023-04-10T01:26:30;9.55;;;8.75;;
18720;SDS011;9489;50.948;3.114;2023-04-10T01:29:05;10.43;;;9.55;;
18720;SDS011;9489;50.948;3.114;2023-04-10T01:31:49;10.00;;;9.18;;
18720;SDS011;9489;50.948;3.114;2023-04-10T01:34:23;10.48;;;9.57;;
18720;SDS011;9489;50.948;3.114;2023-04-10T01:36:52;10.57;;;9.52;;
18720;SDS011;9489;50.948;3.114;2023-04-10T01:39:22;10.07;;;9.20;;
18720;SDS011;9489;50.948;3.114;2023-04-10T01:41:50;10.73;;;9.82;;
18720;SDS011;9489;50.948;3.114;2023-04-10T01:44:18;10.68;;;9.77;;
18720;SDS011;9489;50.948;3.114;2023-04-10T01:46:49;10.68;;;9.68;;
18720;SDS011;9489;50.948;3.114;2023-04-10T01:49:16;10.07;;;9.23;;
18720;SDS011;9489;50.948;3.114;2023-04-10T01:51:43;10.05;;;9.25;;
18720;SDS011;9489;50.948;3.114;2023-04-10T01:54:10;9.82;;;9.02;;
18720;SDS011;9489;50.948;3.114;2023-04-10T01:56:36;10.57;;;9.57;;
18720;SDS011;9489;50.948;3.114;2023-04-10T01:59:03;10.52;;;9.63;;
18720;SDS011;9489;50.948;3.114;2023-04-10T02:01:29;10.57;;;9.65;;
18720;SDS011;9489;50.948;3.114;2023-04-10T02:03:55;9.90;;;9.10;;
18720;SDS011;9489;50.948;3.114;2023-04-10T02:06:36;10.52;;;9.55;;
18720;SDS011;9489;50.948;3.114;2023-04-10T02:12:09;10.40;;;9.50;;
18720;SDS011;9489;50.948;3.114;2023-04-10T02:14:42;10.32;;;9.45;;
18720;SDS011;9489;50.948;3.114;2023-04-10T02:17:10;10.00;;;9.20;;
18720;SDS011;9489;50.948;3.114;2023-04-10T02:19:40;9.30;;;8.50;;
18720;SDS011;9489;50.948;3.114;2023-04-10T02:22:06;10.48;;;9.57;;
18720;SDS011;9489;50.948;3.114;2023-04-10T02:24:32;10.02;;;9.27;;
18720;SDS011;9489;50.948;3.114;2023-04-10T02:26:59;10.38;;;9.45;;
18720;SDS011;9489;50.948;3.114;2023-04-10T02:29:25;9.32;;;8.63;;
18720;SDS011;9489;50.948;3.114;2023-04-10T02:31:51;9.45;;;8.65;;
18720;SDS011;9489;50.948;3.114;2023-04-10T02:34:17;9.85;;;8.90;;
18720;SDS011;9489;50.948;3.114;2023-04-10T02:36:42;8.52;;;7.82;;
18720;SDS011;9489;50.948;3.114;2023-04-10T02:39:08;9.60;;;8.80;;
18720;SDS011;9489;50.948;3.114;2023-04-10T02:41:33;9.68;;;8.88;;
18720;SDS011;9489;50.948;3.114;2023-04-10T02:43:59;8.52;;;7.82;;
18720;SDS011;9489;50.948;3.114;2023-04-10T02:46:24;9.40;;;8.50;;
18720;SDS011;9489;50.948;3.114;2023-04-10T02:48:50;9.60;;;8.80;;
18720;SDS011;9489;50.948;3.114;2023-04-10T02:51:16;9.18;;;8.48;;
18720;SDS011;9489;50.948;3.114;2023-04-10T02:53:42;8.38;;;7.68;;
18720;SDS011;9489;50.948;3.114;2023-04-10T02:56:08;9.27;;;8.48;;
18720;SDS011;9489;50.948;3.114;2023-04-10T02:58:35;9.10;;;8.20;;
18720;SDS011;9489;50.948;3.114;2023-04-10T03:01:02;8.75;;;7.97;;
18720;SDS011;9489;50.948;3.114;2023-04-10T03:03:29;9.13;;;8.40;;
18720;SDS011;9489;50.948;3.114;2023-04-10T03:05:55;8.93;;;8.15;;
18720;SDS011;9489;50.948;3.114;2023-04-10T03:08:20;9.02;;;8.32;;
18720;SDS011;9489;50.948;3.114;2023-04-10T03:10:46;8.60;;;7.90;;
18720;SDS011;9489;50.948;3.114;2023-04-10T03:13:13;8.68;;;8.00;;
18720;SDS011;9489;50.948;3.114;2023-04-10T03:15:38;9.05;;;8.25;;
18720;SDS011;9489;50.948;3.114;2023-04-10T03:18:04;8.15;;;7.45;;
18720;SDS011;9489;50.948;3.114;2023-04-10T03:20:30;8.95;;;8.15;;
18720;SDS011;9489;50.948;3.114;2023-04-10T03:22:57;9.45;;;8.60;;
18720;SDS011;9489;50.948;3.114;2023-04-10T03:25:27;9.48;;;8.68;;
18720;SDS011;9489;50.948;3.114;2023-04-10T03:27:52;9.55;;;8.57;;
18720;SDS011;9489;50.948;3.114;2023-04-10T03:30:18;8.45;;;7.70;;
18720;SDS011;9489;50.948;3.114;2023-04-10T03:32:43;9.20;;;8.50;;
18720;SDS011;9489;50.948;3.114;2023-04-10T03:35:09;9.77;;;8.88;;
18720;SDS011;9489;50.948;3.114;2023-04-10T03:37:35;9.90;;;9.10;;
18720;SDS011;9489;50.948;3.114;2023-04-10T03:40:01;8.80;;;8.07;;
18720;SDS011;9489;50.948;3.114;2023-04-10T03:42:31;8.88;;;8.18;;
18720;SDS011;9489;50.948;3.114;2023-04-10T03:44:56;9.25;;;8.48;;
18720;SDS011;9489;50.948;3.114;2023-04-10T03:47:22;9.43;;;8.63;;
18720;SDS011;9489;50.948;3.114;2023-04-10T03:49:47;9.65;;;8.85;;
18720;SDS011;9489;50.948;3.114;2023-04-10T03:52:13;9.13;;;8.43;;
18720;SDS011;9489;50.948;3.114;2023-04-10T03:54:38;9.35;;;8.45;;
18720;SDS011;9489;50.948;3.114;2023-04-10T03:57:04;9.55;;;8.75;;
18720;SDS011;9489;50.948;3.114;2023-04-10T03:59:30;9.20;;;8.50;;
18720;SDS011;9489;50.948;3.114;2023-04-10T04:01:55;9.73;;;8.93;;
18720;SDS011;9489;50.948;3.114;2023-04-10T04:04:21;9.57;;;8.73;;
18720;SDS011;9489;50.948;3.114;2023-04-10T04:06:47;10.18;;;9.27;;
18720;SDS011;9489;50.948;3.114;2023-04-10T04:09:12;10.63;;;9.63;;
18720;SDS011;9489;50.948;3.114;2023-04-10T04:11:38;10.38;;;9.48;;
18720;SDS011;9489;50.948;3.114;2023-04-10T04:14:03;9.63;;;8.82;;
18720;SDS011;9489;50.948;3.114;2023-04-10T04:16:29;10.07;;;9.18;;
18720;SDS011;9489;50.948;3.114;2023-04-10T04:18:55;9.85;;;8.88;;
18720;SDS011;9489;50.948;3.114;2023-04-10T04:21:20;10.32;;;9.32;;
18720;SDS011;9489;50.948;3.114;2023-04-10T04:23:46;10.25;;;9.35;;
18720;SDS011;9489;50.948;3.114;2023-04-10T04:26:11;10.38;;;9.40;;
18720;SDS011;9489;50.948;3.114;2023-04-10T04:28:37;10.45;;;9.45;;
18720;SDS011;9489;50.948;3.114;2023-04-10T04:31:02;10.38;;;9.38;;
18720;SDS011;9489;50.948;3.114;2023-04-10T04:33:28;10.07;;;9.18;;
18720;SDS011;9489;50.948;3.114;2023-04-10T04:35:54;10.35;;;9.20;;
18720;SDS011;9489;50.948;3.114;2023-04-10T04:38:20;10.05;;;9.15;;
18720;SDS011;9489;50.948;3.114;2023-04-10T04:40:46;10.02;;;9.07;;
18720;SDS011;9489;50.948;3.114;2023-04-10T04:43:11;10.57;;;9.75;;
18720;SDS011;9489;50.948;3.114;2023-04-10T04:45:37;9.27;;;8.43;;
18720;SDS011;9489;50.948;3.114;2023-04-10T04:48:03;9.57;;;8.68;;
18720;SDS011;9489;50.948;3.114;2023-04-10T04:50:28;10.45;;;9.55;;
18720;SDS011;9489;50.948;3.114;2023-04-10T04:52:54;9.68;;;8.77;;
18720;SDS011;9489;50.948;3.114;2023-04-10T04:55:19;10.38;;;9.45;;
18720;SDS011;9489;50.948;3.114;2023-04-10T04:57:45;9.95;;;9.05;;
18720;SDS011;9489;50.948;3.114;2023-04-10T05:00:10;9.30;;;8.50;;
18720;SDS011;9489;50.948;3.114;2023-04-10T05:02:36;9.80;;;8.98;;
18720;SDS011;9489;50.948;3.114;2023-04-10T05:05:02;10.23;;;9.32;;
18720;SDS011;9489;50.948;3.114;2023-04-10T05:07:27;10.25;;;9.30;;
18720;SDS011;9489;50.948;3.114;2023-04-10T05:09:53;10.00;;;9.00;;
18720;SDS011;9489;50.948;3.114;2023-04-10T05:12:19;10.20;;;9.27;;
18720;SDS011;9489;50.948;3.114;2023-04-10T05:14:45;9.38;;;8.57;;
18720;SDS011;9489;50.948;3.114;2023-04-10T05:17:10;9.77;;;8.98;;
18720;SDS011;9489;50.948;3.114;2023-04-10T05:19:36;10.45;;;9.55;;
18720;SDS011;9489;50.948;3.114;2023-04-10T05:22:01;10.48;;;9.57;;
18720;SDS011;9489;50.948;3.114;2023-04-10T05:24:27;10.02;;;9.10;;
18720;SDS011;9489;50.948;3.114;2023-04-10T05:26:52;10.38;;;9.50;;
18720;SDS011;9489;50.948;3.114;2023-04-10T05:29:18;9.95;;;9.05;;
18720;SDS011;9489;50.948;3.114;2023-04-10T05:31:43;10.32;;;9.43;;
18720;SDS011;9489;50.948;3.114;2023-04-10T05:34:09;10.23;;;9.32;;
18720;SDS011;9489;50.948;3.114;2023-04-10T05:36:35;9.80;;;9.00;;
18720;SDS011;9489;50.948;3.114;2023-04-10T05:39:01;10.57;;;9.68;;
18720;SDS011;9489;50.948;3.114;2023-04-10T05:41:26;10.15;;;9.32;;
18720;SDS011;9489;50.948;3.114;2023-04-10T05:43:52;10.07;;;9.07;;
18720;SDS011;9489;50.948;3.114;2023-04-10T05:46:17;10.70;;;9.80;;
18720;SDS011;9489;50.948;3.114;2023-04-10T05:48:43;10.88;;;9.98;;
18720;SDS011;9489;50.948;3.114;2023-04-10T05:51:08;10.57;;;9.68;;
18720;SDS011;9489;50.948;3.114;2023-04-10T05:53:34;10.05;;;9.05;;
18720;SDS011;9489;50.948;3.114;2023-04-10T05:56:00;10.20;;;9.30;;
18720;SDS011;9489;50.948;3.114;2023-04-10T05:58:26;10.48;;;9.57;;
18720;SDS011;9489;50.948;3.114;2023-04-10T06:00:52;10.32;;;9.43;;
18720;SDS011;9489;50.948;3.114;2023-04-10T06:03:18;10.55;;;9.65;;
18720;SDS011;9489;50.948;3.114;2023-04-10T06:05:44;10.98;;;10.07;;
18720;SDS011;9489;50.948;3.114;2023-04-10T06:08:10;11.25;;;10.35;;
18720;SDS011;9489;50.948;3.114;2023-04-10T06:10:36;10.18;;;9.27;;
18720;SDS011;9489;50.948;3.114;2023-04-10T06:13:02;9.82;;;9.00;;
18720;SDS011;9489;50.948;3.114;2023-04-10T06:15:27;9.68;;;8.88;;
18720;SDS011;9489;50.948;3.114;2023-04-10T06:17:53;10.50;;;9.60;;
18720;SDS011;9489;50.948;3.114;2023-04-10T06:20:19;11.40;;;10.40;;
18720;SDS011;9489;50.948;3.114;2023-04-10T06:22:45;10.90;;;10.00;;
18720;SDS011;9489;50.948;3.114;2023-04-10T06:25:11;10.57;;;9.68;;
18720;SDS011;9489;50.948;3.114;2023-04-10T06:27:36;10.77;;;9.68;;
18720;SDS011;9489;50.948;3.114;2023-04-10T06:30:02;10.65;;;9.75;;
18720;SDS011;9489;50.948;3.114;2023-04-10T06:32:28;10.18;;;9.27;;
18720;SDS011;9489;50.948;3.114;2023-04-10T06:34:53;10.13;;;9.23;;
18720;SDS011;9489;50.948;3.114;2023-04-10T06:37:25;10.18;;;9.38;;
18720;SDS011;9489;50.948;3.114;2023-04-10T06:39:59;10.82;;;9.88;;
18720;SDS011;9489;50.948;3.114;2023-04-10T06:42:31;10.75;;;9.80;;
18720;SDS011;9489;50.948;3.114;2023-04-10T06:44:57;10.75;;;9.77;;
18720;SDS011;9489;50.948;3.114;2023-04-10T06:47:22;11.15;;;10.20;;
18720;SDS011;9489;50.948;3.114;2023-04-10T06:49:48;9.88;;;8.98;;
18720;SDS011;9489;50.948;3.114;2023-04-10T06:52:14;10.18;;;9.25;;
18720;SDS011;9489;50.948;3.114;2023-04-10T06:54:40;10.15;;;9.35;;
18720;SDS011;9489;50.948;3.114;2023-04-10T06:57:06;9.85;;;9.05;;
18720;SDS011;9489;50.948;3.114;2023-04-10T06:59:31;9.95;;;9.05;;
18720;SDS011;9489;50.948;3.114;2023-04-10T07:01:58;10.50;;;9.60;;
18720;SDS011;9489;50.948;3.114;2023-04-10T07:04:24;10.32;;;9.43;;
18720;SDS011;9489;50.948;3.114;2023-04-10T07:06:50;10.23;;;9.40;;
18720;SDS011;9489;50.948;3.114;2023-04-10T07:09:15;10.95;;;10.00;;
18720;SDS011;9489;50.948;3.114;2023-04-10T07:11:41;10.48;;;9.57;;
18720;SDS011;9489;50.948;3.114;2023-04-10T07:14:06;10.65;;;9.73;;
18720;SDS011;9489;50.948;3.114;2023-04-10T07:16:32;10.60;;;9.68;;
18720;SDS011;9489;50.948;3.114;2023-04-10T07:18:57;9.88;;;8.98;;
18720;SDS011;9489;50.948;3.114;2023-04-10T07:21:23;9.88;;;8.98;;
18720;SDS011;9489;50.948;3.114;2023-04-10T07:23:48;9.93;;;9.02;;
18720;SDS011;9489;50.948;3.114;2023-04-10T07:26:14;10.13;;;9.23;;
18720;SDS011;9489;50.948;3.114;2023-04-10T07:28:40;9.85;;;9.00;;
18720;SDS011;9489;50.948;3.114;2023-04-10T07:31:05;10.00;;;9.10;;
18720;SDS011;9489;50.948;3.114;2023-04-10T07:33:32;10.15;;;9.25;;
18720;SDS011;9489;50.948;3.114;2023-04-10T07:35:58;9.88;;;8.98;;
18720;SDS011;9489;50.948;3.114;2023-04-10T07:38:23;10.00;;;9.10;;
18720;SDS011;9489;50.948;3.114;2023-04-10T07:40:54;9.43;;;8.63;;
18720;SDS011;9489;50.948;3.114;2023-04-10T07:43:21;10.98;;;9.90;;
18720;SDS011;9489;50.948;3.114;2023-04-10T07:45:46;9.98;;;9.07;;
18720;SDS011;9489;50.948;3.114;2023-04-10T07:48:12;9.82;;;9.02;;
18720;SDS011;9489;50.948;3.114;2023-04-10T07:50:37;10.38;;;9.48;;
18720;SDS011;9489;50.948;3.114;2023-04-10T07:53:03;9.85;;;8.95;;
18720;SDS011;9489;50.948;3.114;2023-04-10T07:55:36;10.02;;;9.13;;
18720;SDS011;9489;50.948;3.114;2023-04-10T07:58:02;9.80;;;8.90;;
18720;SDS011;9489;50.948;3.114;2023-04-10T08:00:27;8.93;;;8.23;;
18720;SDS011;9489;50.948;3.114;2023-04-10T08:02:53;8.80;;;8.00;;
18720;SDS011;9489;50.948;3.114;2023-04-10T08:05:19;9.23;;;8.43;;
18720;SDS011;9489;50.948;3.114;2023-04-10T08:07:45;9.77;;;8.98;;
18720;SDS011;9489;50.948;3.114;2023-04-10T08:10:11;8.80;;;8.10;;
18720;SDS011;9489;50.948;3.114;2023-04-10T08:12:36;8.95;;;8.10;;
18720;SDS011;9489;50.948;3.114;2023-04-10T08:15:02;9.05;;;8.35;;
18720;SDS011;9489;50.948;3.114;2023-04-10T08:17:28;8.77;;;8.00;;
18720;SDS011;9489;50.948;3.114;2023-04-10T08:19:53;9.35;;;8.45;;
18720;SDS011;9489;50.948;3.114;2023-04-10T08:22:19;9.07;;;8.25;;
18720;SDS011;9489;50.948;3.114;2023-04-10T08:24:44;9.02;;;8.38;;
18720;SDS011;9489;50.948;3.114;2023-04-10T08:27:10;8.48;;;7.75;;
18720;SDS011;9489;50.948;3.114;2023-04-10T08:29:35;8.73;;;7.93;;
18720;SDS011;9489;50.948;3.114;2023-04-10T08:32:01;8.20;;;7.57;;
18720;SDS011;9489;50.948;3.114;2023-04-10T08:34:26;8.15;;;7.43;;
18720;SDS011;9489;50.948;3.114;2023-04-10T08:36:52;8.18;;;7.47;;
18720;SDS011;9489;50.948;3.114;2023-04-10T08:39:18;9.10;;;8.40;;
18720;SDS011;9489;50.948;3.114;2023-04-10T08:41:44;8.65;;;7.90;;
18720;SDS011;9489;50.948;3.114;2023-04-10T08:44:10;8.70;;;7.90;;
18720;SDS011;9489;50.948;3.114;2023-04-10T08:46:36;8.00;;;7.30;;
18720;SDS011;9489;50.948;3.114;2023-04-10T08:49:07;8.13;;;7.43;;
18720;SDS011;9489;50.948;3.114;2023-04-10T08:51:36;8.30;;;7.60;;
18720;SDS011;9489;50.948;3.114;2023-04-10T08:54:07;8.35;;;7.65;;
18720;SDS011;9489;50.948;3.114;2023-04-10T08:56:38;8.60;;;7.82;;
18720;SDS011;9489;50.948;3.114;2023-04-10T08:59:06;8.63;;;8.00;;
18720;SDS011;9489;50.948;3.114;2023-04-10T09:01:33;8.48;;;7.82;;
18720;SDS011;9489;50.948;3.114;2023-04-10T09:03:59;8.70;;;8.05;;
18720;SDS011;9489;50.948;3.114;2023-04-10T09:06:25;8.23;;;7.53;;
18720;SDS011;9489;50.948;3.114;2023-04-10T09:08:51;8.27;;;7.57;;
18720;SDS011;9489;50.948;3.114;2023-04-10T09:11:16;8.20;;;7.50;;
18720;SDS011;9489;50.948;3.114;2023-04-10T09:13:42;9.10;;;8.27;;
18720;SDS011;9489;50.948;3.114;2023-04-10T09:16:09;8.77;;;8.02;;
18720;SDS011;9489;50.948;3.114;2023-04-10T09:18:39;8.82;;;8.13;;
18720;SDS011;9489;50.948;3.114;2023-04-10T09:21:09;8.30;;;7.60;;
18720;SDS011;9489;50.948;3.114;2023-04-10T09:23:36;7.85;;;7.15;;
18720;SDS011;9489;50.948;3.114;2023-04-10T09:28:56;8.27;;;7.65;;
18720;SDS011;9489;50.948;3.114;2023-04-10T09:31:32;8.38;;;7.68;;
18720;SDS011;9489;50.948;3.114;2023-04-10T09:34:09;7.10;;;6.60;;
18720;SDS011;9489;50.948;3.114;2023-04-10T09:36:37;8.25;;;7.65;;
18720;SDS011;9489;50.948;3.114;2023-04-10T09:39:03;7.93;;;7.32;;
18720;SDS011;9489;50.948;3.114;2023-04-10T09:41:30;7.88;;;7.25;;
18720;SDS011;9489;50.948;3.114;2023-04-10T09:44:05;8.57;;;7.85;;
18720;SDS011;9489;50.948;3.114;2023-04-10T09:46:31;7.45;;;6.85;;
18720;SDS011;9489;50.948;3.114;2023-04-10T09:48:58;8.00;;;7.32;;
18720;SDS011;9489;50.948;3.114;2023-04-10T09:51:28;8.10;;;7.40;;
18720;SDS011;9489;50.948;3.114;2023-04-10T09:53:59;7.70;;;7.00;;
18720;SDS011;9489;50.948;3.114;2023-04-10T09:56:27;9.48;;;7.70;;
18720;SDS011;9489;50.948;3.114;2023-04-10T09:58:55;7.50;;;6.90;;
18720;SDS011;9489;50.948;3.114;2023-04-10T10:01:24;8.30;;;7.60;;
18720;SDS011;9489;50.948;3.114;2023-04-10T10:03:54;8.15;;;7.45;;
18720;SDS011;9489;50.948;3.114;2023-04-10T10:06:21;9.48;;;8.55;;
18720;SDS011;9489;50.948;3.114;2023-04-10T10:08:47;13.60;;;12.35;;
18720;SDS011;9489;50.948;3.114;2023-04-10T10:11:14;11.60;;;10.60;;
18720;SDS011;9489;50.948;3.114;2023-04-10T10:13:48;9.32;;;8.52;;
18720;SDS011;9489;50.948;3.114;2023-04-10T10:16:22;9.35;;;8.55;;
18720;SDS011;9489;50.948;3.114;2023-04-10T10:18:58;8.65;;;7.95;;
18720;SDS011;9489;50.948;3.114;2023-04-10T10:21:38;8.63;;;7.80;;
18720;SDS011;9489;50.948;3.114;2023-04-10T10:24:06;8.93;;;8.20;;
18720;SDS011;9489;50.948;3.114;2023-04-10T10:26:33;7.93;;;7.28;;
18720;SDS011;9489;50.948;3.114;2023-04-10T10:29:04;8.45;;;7.75;;
18720;SDS011;9489;50.948;3.114;2023-04-10T10:31:37;8.57;;;7.88;;
18720;SDS011;9489;50.948;3.114;2023-04-10T10:34:04;8.82;;;8.13;;
18720;SDS011;9489;50.948;3.114;2023-04-10T10:36:33;8.60;;;7.90;;
18720;SDS011;9489;50.948;3.114;2023-04-10T10:42:29;9.80;;;8.95;;
18720;SDS011;9489;50.948;3.114;2023-04-10T10:44:35;9.27;;;8.57;;
18720;SDS011;9489;50.948;3.114;2023-04-10T10:47:18;9.13;;;8.43;;
18720;SDS011;9489;50.948;3.114;2023-04-10T10:49:58;9.75;;;8.95;;
18720;SDS011;9489;50.948;3.114;2023-04-10T10:57:49;10.38;;;9.48;;
18720;SDS011;9489;50.948;3.114;2023-04-10T11:00:24;10.88;;;9.90;;
18720;SDS011;9489;50.948;3.114;2023-04-10T11:08:33;11.15;;;10.25;;
18720;SDS011;9489;50.948;3.114;2023-04-10T11:11:04;11.45;;;10.45;;
18720;SDS011;9489;50.948;3.114;2023-04-10T11:13:31;11.25;;;10.25;;
18720;SDS011;9489;50.948;3.114;2023-04-10T11:15:59;11.52;;;10.52;;
18720;SDS011;9489;50.948;3.114;2023-04-10T11:21:11;11.52;;;10.63;;
18720;SDS011;9489;50.948;3.114;2023-04-10T11:24:00;11.63;;;10.60;;
18720;SDS011;9489;50.948;3.114;2023-04-10T11:28:59;11.95;;;10.95;;
18720;SDS011;9489;50.948;3.114;2023-04-10T11:34:26;11.38;;;10.38;;
18720;SDS011;9489;50.948;3.114;2023-04-10T11:36:52;10.88;;;9.95;;
18720;SDS011;9489;50.948;3.114;2023-04-10T11:39:18;11.57;;;10.63;;
18720;SDS011;9489;50.948;3.114;2023-04-10T11:44:17;11.85;;;10.85;;
18720;SDS011;9489;50.948;3.114;2023-04-10T11:46:50;12.55;;;11.55;;
18720;SDS011;9489;50.948;3.114;2023-04-10T11:49:18;13.00;;;11.77;;
18720;SDS011;9489;50.948;3.114;2023-04-10T11:51:45;10.95;;;10.07;;
18720;SDS011;9489;50.948;3.114;2023-04-10T11:54:12;11.50;;;10.43;;
18720;SDS011;9489;50.948;3.114;2023-04-10T11:56:40;11.32;;;10.43;;
18720;SDS011;9489;50.948;3.114;2023-04-10T11:59:18;11.75;;;10.65;;
18720;SDS011;9489;50.948;3.114;2023-04-10T12:01:44;11.93;;;10.95;;
18720;SDS011;9489;50.948;3.114;2023-04-10T12:04:16;11.05;;;10.15;;
18720;SDS011;9489;50.948;3.114;2023-04-10T12:06:50;11.05;;;10.10;;
18720;SDS011;9489;50.948;3.114;2023-04-10T12:09:18;10.90;;;9.90;;
18720;SDS011;9489;50.948;3.114;2023-04-10T12:11:55;11.30;;;10.32;;
18720;SDS011;9489;50.948;3.114;2023-04-10T12:14:33;11.45;;;10.48;;
18720;SDS011;9489;50.948;3.114;2023-04-10T12:17:04;10.85;;;9.98;;
18720;SDS011;9489;50.948;3.114;2023-04-10T12:19:33;10.60;;;9.80;;
18720;SDS011;9489;50.948;3.114;2023-04-10T12:22:00;10.35;;;9.30;;
18720;SDS011;9489;50.948;3.114;2023-04-10T12:24:44;10.13;;;9.32;;
18720;SDS011;9489;50.948;3.114;2023-04-10T12:27:15;9.57;;;8.77;;
18720;SDS011;9489;50.948;3.114;2023-04-10T12:29:41;10.15;;;9.35;;
18720;SDS011;9489;50.948;3.114;2023-04-10T12:32:07;9.45;;;8.55;;
18720;SDS011;9489;50.948;3.114;2023-04-10T12:34:33;9.40;;;8.60;;
18720;SDS011;9489;50.948;3.114;2023-04-10T12:37:00;10.23;;;9.32;;
18720;SDS011;9489;50.948;3.114;2023-04-10T12:39:26;9.80;;;9.00;;
18720;SDS011;9489;50.948;3.114;2023-04-10T12:41:52;11.93;;;9.13;;
18720;SDS011;9489;50.948;3.114;2023-04-10T12:44:18;10.18;;;9.27;;
18720;SDS011;9489;50.948;3.114;2023-04-10T12:46:44;9.27;;;8.52;;
18720;SDS011;9489;50.948;3.114;2023-04-10T12:51:50;9.00;;;8.07;;
18720;SDS011;9489;50.948;3.114;2023-04-10T12:54:37;8.75;;;7.95;;
18720;SDS011;9489;50.948;3.114;2023-04-10T12:57:02;7.93;;;7.32;;
18720;SDS011;9489;50.948;3.114;2023-04-10T12:59:28;8.63;;;7.88;;
18720;SDS011;9489;50.948;3.114;2023-04-10T13:01:55;9.05;;;8.25;;
18720;SDS011;9489;50.948;3.114;2023-04-10T13:04:21;8.20;;;7.50;;
18720;SDS011;9489;50.948;3.114;2023-04-10T13:06:47;9.05;;;8.15;;
18720;SDS011;9489;50.948;3.114;2023-04-10T13:09:13;9.18;;;8.45;;
18720;SDS011;9489;50.948;3.114;2023-04-10T13:11:39;9.70;;;8.80;;
18720;SDS011;9489;50.948;3.114;2023-04-10T13:14:05;9.70;;;8.70;;
18720;SDS011;9489;50.948;3.114;2023-04-10T13:16:35;9.55;;;8.75;;
18720;SDS011;9489;50.948;3.114;2023-04-10T13:19:00;10.63;;;9.75;;
18720;SDS011;9489;50.948;3.114;2023-04-10T13:21:26;10.70;;;9.70;;
18720;SDS011;9489;50.948;3.114;2023-04-10T13:23:53;11.07;;;10.18;;
18720;SDS011;9489;50.948;3.114;2023-04-10T13:26:20;10.43;;;9.57;;
18720;SDS011;9489;50.948;3.114;2023-04-10T13:28:45;11.40;;;10.40;;
18720;SDS011;9489;50.948;3.114;2023-04-10T13:31:11;11.80;;;10.73;;
18720;SDS011;9489;50.948;3.114;2023-04-10T13:33:39;11.95;;;10.85;;
18720;SDS011;9489;50.948;3.114;2023-04-10T13:36:05;11.50;;;10.52;;
18720;SDS011;9489;50.948;3.114;2023-04-10T13:38:31;12.05;;;10.95;;
18720;SDS011;9489;50.948;3.114;2023-04-10T13:40:57;13.13;;;12.02;;
18720;SDS011;9489;50.948;3.114;2023-04-10T13:43:23;12.40;;;11.40;;
18720;SDS011;9489;50.948;3.114;2023-04-10T13:45:48;12.75;;;11.65;;
18720;SDS011;9489;50.948;3.114;2023-04-10T13:48:14;12.57;;;11.45;;
18720;SDS011;9489;50.948;3.114;2023-04-10T13:50:42;12.05;;;10.90;;
18720;SDS011;9489;50.948;3.114;2023-04-10T13:53:07;10.65;;;9.75;;
18720;SDS011;9489;50.948;3.114;2023-04-10T13:55:34;11.77;;;10.77;;
18720;SDS011;9489;50.948;3.114;2023-04-10T13:58:01;12.18;;;11.02;;
18720;SDS011;9489;50.948;3.114;2023-04-10T14:00:27;11.88;;;10.88;;
18720;SDS011;9489;50.948;3.114;2023-04-10T14:02:52;11.07;;;10.07;;
18720;SDS011;9489;50.948;3.114;2023-04-10T14:05:18;12.68;;;11.52;;
18720;SDS011;9489;50.948;3.114;2023-04-10T14:07:43;11.77;;;10.77;;
18720;SDS011;9489;50.948;3.114;2023-04-10T14:10:09;12.98;;;11.88;;
18720;SDS011;9489;50.948;3.114;2023-04-10T14:12:34;12.90;;;11.70;;
18720;SDS011;9489;50.948;3.114;2023-04-10T14:15:00;12.23;;;11.20;;
18720;SDS011;9489;50.948;3.114;2023-04-10T14:17:26;12.52;;;11.32;;
18720;SDS011;9489;50.948;3.114;2023-04-10T14:19:52;10.45;;;9.55;;
18720;SDS011;9489;50.948;3.114;2023-04-10T14:22:18;9.38;;;8.30;;
18720;SDS011;9489;50.948;3.114;2023-04-10T14:24:44;9.63;;;8.77;;
18720;SDS011;9489;50.948;3.114;2023-04-10T14:27:09;10.98;;;10.00;;
18720;SDS011;9489;50.948;3.114;2023-04-10T14:29:35;13.23;;;11.98;;
18720;SDS011;9489;50.948;3.114;2023-04-10T14:32:01;12.15;;;11.13;;
18720;SDS011;9489;50.948;3.114;2023-04-10T14:34:26;10.40;;;9.35;;
18720;SDS011;9489;50.948;3.114;2023-04-10T14:36:52;9.75;;;8.85;;
18720;SDS011;9489;50.948;3.114;2023-04-10T14:39:20;8.88;;;7.97;;
18720;SDS011;9489;50.948;3.114;2023-04-10T14:41:47;9.48;;;8.57;;
18720;SDS011;9489;50.948;3.114;2023-04-10T14:44:12;8.48;;;7.47;;
18720;SDS011;9489;50.948;3.114;2023-04-10T14:46:38;9.00;;;7.40;;
18720;SDS011;9489;50.948;3.114;2023-04-10T14:49:03;6.15;;;5.55;;
18720;SDS011;9489;50.948;3.114;2023-04-10T14:51:29;6.65;;;5.63;;
18720;SDS011;9489;50.948;3.114;2023-04-10T14:53:55;6.75;;;5.25;;
18720;SDS011;9489;50.948;3.114;2023-04-10T14:56:21;7.93;;;4.63;;
18720;SDS011;9489;50.948;3.114;2023-04-10T14:58:46;5.72;;;5.22;;
18720;SDS011;9489;50.948;3.114;2023-04-10T15:01:12;5.68;;;4.90;;
18720;SDS011;9489;50.948;3.114;2023-04-10T15:03:38;6.03;;;5.43;;
18720;SDS011;9489;50.948;3.114;2023-04-10T15:06:04;4.78;;;4.28;;
18720;SDS011;9489;50.948;3.114;2023-04-10T15:08:30;5.75;;;5.07;;
18720;SDS011;9489;50.948;3.114;2023-04-10T15:10:55;6.32;;;5.32;;
18720;SDS011;9489;50.948;3.114;2023-04-10T15:13:21;5.20;;;3.38;;
18720;SDS011;9489;50.948;3.114;2023-04-10T15:15:47;5.22;;;3.53;;
18720;SDS011;9489;50.948;3.114;2023-04-10T15:18:13;6.00;;;3.70;;
18720;SDS011;9489;50.948;3.114;2023-04-10T15:20:39;6.22;;;4.78;;
18720;SDS011;9489;50.948;3.114;2023-04-10T15:23:05;6.10;;;3.35;;
18720;SDS011;9489;50.948;3.114;2023-04-10T15:25:31;6.55;;;3.83;;
18720;SDS011;9489;50.948;3.114;2023-04-10T15:27:57;7.00;;;3.67;;
18720;SDS011;9489;50.948;3.114;2023-04-10T15:30:23;6.82;;;3.17;;
18720;SDS011;9489;50.948;3.114;2023-04-10T15:32:48;5.72;;;3.00;;